createdAt,value
2019-01-14T00:02:25.402Z,31
2019-01-14T00:05:31.362Z,31
2019-01-14T00:08:37.427Z,31
2019-01-14T00:11:43.295Z,30.9
2019-01-14T00:14:49.243Z,30.9
2019-01-14T00:17:55.202Z,30.9
2019-01-14T00:21:01.263Z,30.8
2019-01-14T00:24:07.134Z,30.8
2019-01-14T00:27:13.175Z,30.8
2019-01-14T00:30:19.140Z,30.9
2019-01-14T00:33:25.214Z,31
2019-01-14T00:36:31.175Z,30.9
2019-01-14T00:39:37.043Z,30.9
2019-01-14T00:42:42.990Z,30.9
2019-01-14T00:45:48.862Z,30.8
2019-01-14T00:48:54.795Z,30.8
2019-01-14T00:52:00.964Z,30.8
2019-01-14T00:55:06.914Z,30.7
2019-01-14T00:58:12.893Z,30.8
2019-01-14T01:01:18.779Z,30.8
2019-01-14T01:04:24.695Z,30.8
2019-01-14T01:07:30.757Z,30
2019-01-14T01:10:36.629Z,29.3
2019-01-14T01:13:42.597Z,28.8
2019-01-14T01:16:48.550Z,28.6
2019-01-14T01:19:54.415Z,28.4
2019-01-14T01:23:00.351Z,28.3
2019-01-14T01:26:06.219Z,28.2
2019-01-14T01:29:12.268Z,28.2
2019-01-14T01:32:18.355Z,28
2019-01-14T01:35:24.228Z,27.9
2019-01-14T01:38:30.247Z,28.1
2019-01-14T01:41:36.124Z,27.9
2019-01-14T01:44:42.084Z,28
2019-01-14T01:47:48.349Z,27.6
2019-01-14T01:50:54.295Z,27.7
2019-01-14T01:54:02.782Z,27.6
2019-01-14T01:57:08.665Z,27.3
2019-01-14T02:00:16.268Z,27.1
2019-01-14T02:03:22.142Z,27.2
2019-01-14T02:06:28.087Z,27.3
2019-01-14T02:09:40.802Z,27.3
2019-01-14T02:12:46.766Z,27.1
2019-01-14T02:15:52.817Z,26.9
2019-01-14T02:18:58.707Z,26.8
2019-01-14T02:22:04.743Z,26.7
2019-01-14T02:25:10.707Z,26.6
2019-01-14T02:28:16.683Z,26.6
2019-01-14T02:31:22.646Z,26.7
2019-01-14T02:34:28.580Z,26.6
2019-01-14T02:37:34.638Z,26.5
2019-01-14T02:40:40.516Z,26.3
2019-01-14T02:43:46.655Z,26.1
2019-01-14T02:46:52.552Z,26.1
2019-01-14T02:49:58.424Z,26.1
2019-01-14T02:53:04.637Z,26.1
2019-01-14T02:56:10.696Z,26.1
2019-01-14T02:59:16.659Z,26
2019-01-14T03:02:22.598Z,25.9
2019-01-14T03:05:28.583Z,25.8
2019-01-14T03:08:34.458Z,25.9
2019-01-14T03:11:40.398Z,25.8
2019-01-14T03:14:46.468Z,25.9
2019-01-14T03:17:52.374Z,25.8
2019-01-14T03:20:58.373Z,25.8
2019-01-14T03:24:04.264Z,25.6
2019-01-14T03:27:10.289Z,25.6
2019-01-14T03:30:16.317Z,25.6
2019-01-14T03:33:22.332Z,25.5
2019-01-14T03:36:28.282Z,25.5
2019-01-14T03:39:34.151Z,25.5
2019-01-14T03:42:40.099Z,25.5
2019-01-14T03:45:46.151Z,25.3
2019-01-14T03:48:53.069Z,25.3
2019-01-14T03:51:59.101Z,25.3
2019-01-14T03:55:05.039Z,25.4
2019-01-14T03:58:11.219Z,25.3
2019-01-14T04:01:17.279Z,25.2
2019-01-14T04:04:23.349Z,25.1
2019-01-14T04:07:29.301Z,25
2019-01-14T04:10:35.185Z,25
2019-01-14T04:13:41.129Z,25
2019-01-14T04:16:47.048Z,26.9
2019-01-14T04:19:53.139Z,26.2
2019-01-14T04:22:59.013Z,25.5
2019-01-14T04:26:06.903Z,25.3
2019-01-14T04:29:12.967Z,25.1
2019-01-14T04:32:18.922Z,25.1
2019-01-14T04:35:24.980Z,24.9
2019-01-14T04:38:30.887Z,24.9
2019-01-14T04:41:36.895Z,24.9
2019-01-14T04:44:42.856Z,24.7
2019-01-14T04:47:48.816Z,24.7
2019-01-14T04:50:57.348Z,24.8
2019-01-14T04:54:05.852Z,24.6
2019-01-14T04:57:11.824Z,24.5
2019-01-14T05:00:17.720Z,24.5
2019-01-14T05:03:23.813Z,24.6
2019-01-14T05:06:29.734Z,24.6
2019-01-14T05:09:40.982Z,24.5
2019-01-14T05:12:46.853Z,24.4
2019-01-14T05:15:52.905Z,24.5
2019-01-14T05:18:58.871Z,24.7
2019-01-14T05:22:04.828Z,24.5
2019-01-14T05:25:10.790Z,24.5
2019-01-14T05:28:16.841Z,24.7
2019-01-14T05:31:22.770Z,24.6
2019-01-14T05:34:28.866Z,24.5
2019-01-14T05:37:38.511Z,24.3
2019-01-14T05:40:44.467Z,24.2
2019-01-14T05:43:50.430Z,24.1
2019-01-14T05:46:56.494Z,24.3
2019-01-14T05:50:02.455Z,24.2
2019-01-14T05:53:08.316Z,24.3
2019-01-14T05:56:14.300Z,24.2
2019-01-14T05:59:20.230Z,24.1
2019-01-14T06:02:26.184Z,24.1
2019-01-14T06:05:32.143Z,24.4
2019-01-14T06:08:38.207Z,24.2
2019-01-14T06:11:44.079Z,24.5
2019-01-14T06:14:50.026Z,24.1
2019-01-14T06:17:59.056Z,24.4
2019-01-14T06:21:05.016Z,24.1
2019-01-14T06:24:10.976Z,24.2
2019-01-14T06:27:16.854Z,24.5
2019-01-14T06:30:22.792Z,24.8
2019-01-14T06:33:28.753Z,24.6
2019-01-14T06:36:35.015Z,24.3
2019-01-14T06:39:41.200Z,24.6
2019-01-14T06:42:47.550Z,24.4
2019-01-14T06:45:56.909Z,24
2019-01-14T06:49:02.958Z,24.2
2019-01-14T06:52:09.316Z,24.1
2019-01-14T06:55:15.705Z,24.4
2019-01-14T06:58:21.625Z,24.1
2019-01-14T07:01:27.840Z,23.9
2019-01-14T07:04:34.702Z,25.2
2019-01-14T07:07:40.757Z,24.6
2019-01-14T07:10:46.926Z,24.7
2019-01-14T07:13:53.203Z,24.1
2019-01-14T07:16:59.259Z,24.7
2019-01-14T07:20:05.723Z,24.9
2019-01-14T07:23:11.886Z,24.3
2019-01-14T07:26:18.057Z,24.1
2019-01-14T07:29:24.111Z,24.1
2019-01-14T07:32:30.116Z,24.8
2019-01-14T07:35:36.153Z,24.3
2019-01-14T07:38:42.103Z,24.5
2019-01-14T07:41:48.061Z,24.9
2019-01-14T07:44:54.226Z,24.2
2019-01-14T07:48:04.273Z,24.7
2019-01-14T07:51:10.452Z,25
2019-01-14T07:54:16.509Z,24.5
2019-01-14T07:57:22.815Z,24.9
2019-01-14T08:00:28.938Z,25
2019-01-14T08:03:35.100Z,24.8
2019-01-14T08:06:41.175Z,25.1
2019-01-14T08:09:47.224Z,24.9
2019-01-14T08:12:53.181Z,25
2019-01-14T08:15:59.167Z,25.6
2019-01-14T08:19:05.195Z,24.5
2019-01-14T08:22:11.270Z,24.6
2019-01-14T08:25:17.525Z,24.6
2019-01-14T08:28:23.594Z,24.2
2019-01-14T08:31:30.885Z,24.6
2019-01-14T08:34:36.855Z,24.9
2019-01-14T08:37:43.316Z,25
2019-01-14T08:40:49.775Z,24.8
2019-01-14T08:43:58.593Z,24.3
2019-01-14T08:47:05.595Z,24.8
2019-01-14T08:50:13.632Z,24.6
2019-01-14T08:53:22.518Z,24.8
2019-01-14T08:56:28.425Z,25.8
2019-01-14T08:59:34.460Z,24.5
2019-01-14T09:02:40.595Z,25.1
2019-01-14T09:05:48.427Z,25.5
2019-01-14T09:08:54.527Z,25.6
2019-01-14T09:12:00.573Z,24.3
2019-01-14T09:15:06.535Z,24
2019-01-14T09:18:12.595Z,25.1
2019-01-14T09:21:18.872Z,24.1
2019-01-14T09:24:25.492Z,24.2
2019-01-14T09:27:31.374Z,24.3
2019-01-14T09:30:37.361Z,24.2
2019-01-14T09:33:43.239Z,24.4
2019-01-14T09:36:50.196Z,24.3
2019-01-14T09:39:57.283Z,24.1
2019-01-14T09:43:03.341Z,24.2
2019-01-14T09:46:09.411Z,24.1
2019-01-14T09:49:15.568Z,24.2
2019-01-14T09:52:21.526Z,24
2019-01-14T09:55:29.643Z,23.8
2019-01-14T09:58:35.751Z,23.7
2019-01-14T10:01:41.668Z,24
2019-01-14T10:04:47.877Z,24
2019-01-14T10:07:53.711Z,23.6
2019-01-14T10:11:01.036Z,24.1
2019-01-14T10:14:06.911Z,23.4
2019-01-14T10:17:12.899Z,23.6
2019-01-14T10:20:18.960Z,23.6
2019-01-14T10:23:24.863Z,23.2
2019-01-14T10:26:30.772Z,23
2019-01-14T10:29:36.651Z,23.1
2019-01-14T10:32:43.001Z,23.2
2019-01-14T10:35:49.265Z,23.3
2019-01-14T10:38:55.330Z,23.4
2019-01-14T10:42:05.712Z,23.4
2019-01-14T10:45:11.753Z,23.5
2019-01-14T10:48:18.694Z,23.5
2019-01-14T10:51:24.806Z,23.8
2019-01-14T10:54:30.869Z,23.7
2019-01-14T10:57:36.824Z,23.9
2019-01-14T11:00:43.025Z,23.5
2019-01-14T11:03:51.303Z,23.9
2019-01-14T11:06:57.368Z,23.5
2019-01-14T11:10:03.633Z,23.6
2019-01-14T11:13:09.809Z,23.5
2019-01-14T11:16:15.874Z,23.6
2019-01-14T11:19:21.785Z,23.2
2019-01-14T11:22:27.894Z,23.5
2019-01-14T11:25:35.883Z,23.2
2019-01-14T11:28:41.946Z,23.4
2019-01-14T11:31:48.006Z,23.3
2019-01-14T11:34:55.207Z,23.2
2019-01-14T11:38:01.768Z,23.1
2019-01-14T11:41:07.663Z,23.7
2019-01-14T11:44:15.917Z,23.2
2019-01-14T11:47:21.909Z,23.5
2019-01-14T11:50:28.393Z,23.5
2019-01-14T11:53:34.453Z,23.4
2019-01-14T11:56:40.444Z,23.2
2019-01-14T11:59:46.352Z,23.1
2019-01-14T12:02:52.518Z,23.1
2019-01-14T12:05:58.608Z,23
2019-01-14T12:09:04.641Z,23
2019-01-14T12:12:17.885Z,23.1
2019-01-14T12:15:24.101Z,23.2
2019-01-14T12:18:30.615Z,23.2
2019-01-14T12:21:37.514Z,23.2
2019-01-14T12:24:43.659Z,23.5
2019-01-14T12:27:50.742Z,23.4
2019-01-14T12:30:57.836Z,23.3
2019-01-14T12:34:04.101Z,23.4
2019-01-14T12:37:10.216Z,23.5
2019-01-14T12:40:18.481Z,23.2
2019-01-14T12:43:29.027Z,23.4
2019-01-14T12:46:35.422Z,23.5
2019-01-14T12:49:43.435Z,23.6
2019-01-14T12:52:49.682Z,23.6
2019-01-14T12:55:55.751Z,23.7
2019-01-14T12:59:01.721Z,23.8
2019-01-14T13:02:07.769Z,23.8
2019-01-14T13:05:14.882Z,24
2019-01-14T13:08:21.041Z,23.8
2019-01-14T13:11:27.208Z,23.7
2019-01-14T13:14:33.307Z,23.7
2019-01-14T13:17:39.307Z,23.8
2019-01-14T13:20:46.515Z,23.9
2019-01-14T13:23:52.565Z,23.9
2019-01-14T13:26:58.616Z,24
2019-01-14T13:30:04.503Z,24
2019-01-14T13:33:10.535Z,24.1
2019-01-14T13:36:16.932Z,24.1
2019-01-14T13:39:26.247Z,24.1
2019-01-14T13:42:39.206Z,24.1
2019-01-14T13:45:45.335Z,24
2019-01-14T13:48:56.330Z,23.9
2019-01-14T13:52:04.937Z,23.9
2019-01-14T13:55:10.903Z,23.8
2019-01-14T13:58:17.467Z,23.9
2019-01-14T14:01:24.656Z,23.9
2019-01-14T14:04:30.850Z,23.9
2019-01-14T14:07:36.753Z,23.9
2019-01-14T14:10:43.004Z,24
2019-01-14T14:13:49.005Z,24.3
2019-01-14T14:16:54.899Z,24.1
2019-01-14T14:20:00.925Z,24
2019-01-14T14:23:06.798Z,24.3
2019-01-14T14:26:12.950Z,24.2
2019-01-14T14:29:18.842Z,24
2019-01-14T14:32:24.961Z,24.2
2019-01-14T14:35:31.261Z,24
2019-01-14T14:38:37.199Z,24
2019-01-14T14:41:43.174Z,24.3
2019-01-14T14:44:49.437Z,24.3
2019-01-14T14:47:55.394Z,24.2
2019-01-14T14:51:01.447Z,24.2
2019-01-14T14:54:07.635Z,24.2
2019-01-14T14:57:13.584Z,24.4
2019-01-14T15:00:19.451Z,24.2
2019-01-14T15:03:25.366Z,24.1
2019-01-14T15:06:31.631Z,24.1
2019-01-14T15:09:37.719Z,24.2
2019-01-14T15:12:43.778Z,24.3
2019-01-14T15:15:49.725Z,24.5
2019-01-14T15:18:56.818Z,24.1
2019-01-14T15:22:02.874Z,24.1
2019-01-14T15:25:08.811Z,24
2019-01-14T15:28:14.898Z,23.9
2019-01-14T15:31:20.794Z,24
2019-01-14T15:34:26.713Z,24
2019-01-14T15:37:35.029Z,24.1
2019-01-14T15:40:41.191Z,24.2
2019-01-14T15:43:47.122Z,24.1
2019-01-14T15:46:53.120Z,24.1
2019-01-14T15:49:58.993Z,24.1
2019-01-14T15:53:05.036Z,24.1
2019-01-14T15:56:10.911Z,24.5
2019-01-14T15:59:16.848Z,24.2
2019-01-14T16:02:22.816Z,24.2
2019-01-14T16:05:28.770Z,24.1
2019-01-14T16:08:34.671Z,24
2019-01-14T16:11:40.812Z,24.2
2019-01-14T16:14:46.744Z,24.1
2019-01-14T16:17:52.808Z,23.9
2019-01-14T16:20:58.768Z,23.8
2019-01-14T16:24:04.828Z,24.1
2019-01-14T16:27:10.735Z,24
2019-01-14T16:30:16.748Z,24.1
2019-01-14T16:33:22.631Z,23.9
2019-01-14T16:36:28.667Z,23.8
2019-01-14T16:39:34.729Z,23.7
2019-01-14T16:42:40.614Z,23.7
2019-01-14T16:45:46.562Z,23.7
2019-01-14T16:48:52.823Z,23.8
2019-01-14T16:51:58.874Z,23.8
2019-01-14T16:55:04.767Z,23.8
2019-01-14T16:58:10.697Z,23.8
2019-01-14T17:01:16.778Z,23.7
2019-01-14T17:04:22.939Z,23.6
2019-01-14T17:07:28.798Z,23.5
2019-01-14T17:10:34.836Z,23.6
2019-01-14T17:13:40.800Z,23.7
2019-01-14T17:16:46.762Z,23.8
2019-01-14T17:19:52.714Z,23.8
2019-01-14T17:22:58.604Z,23.8
2019-01-14T17:26:04.640Z,23.8
2019-01-14T17:29:10.545Z,23.8
2019-01-14T17:32:16.560Z,23.8
2019-01-14T17:35:22.436Z,23.9
2019-01-14T17:38:28.472Z,24
2019-01-14T17:41:34.449Z,23.8
2019-01-14T17:44:40.311Z,23.7
2019-01-14T17:47:47.786Z,23.6
2019-01-14T17:50:53.852Z,23.7
2019-01-14T17:53:59.813Z,23.6
2019-01-14T17:57:05.704Z,23.5
2019-01-14T18:00:11.629Z,23.5
2019-01-14T18:03:17.600Z,23.4
2019-01-14T18:06:23.561Z,23.4
2019-01-14T18:09:29.620Z,23.5
2019-01-14T18:12:35.481Z,23.6
2019-01-14T18:15:41.423Z,23.8
2019-01-14T18:18:47.632Z,23.9
2019-01-14T18:21:53.855Z,23.9
2019-01-14T18:24:59.913Z,23.9
2019-01-14T18:28:06.180Z,23.9
2019-01-14T18:31:12.139Z,24
2019-01-14T18:34:18.204Z,23.9
2019-01-14T18:37:24.180Z,23.9
2019-01-14T18:40:34.629Z,23.8
2019-01-14T18:43:40.590Z,23.9
2019-01-14T18:46:46.548Z,23.9
2019-01-14T18:49:52.429Z,24
2019-01-14T18:53:01.086Z,24
2019-01-14T18:56:07.093Z,24.1
2019-01-14T18:59:12.961Z,24.2
2019-01-14T19:02:18.910Z,24.3
2019-01-14T19:05:25.072Z,24.5
2019-01-14T19:08:31.037Z,24.6
2019-01-14T19:11:36.989Z,24.6
2019-01-14T19:14:42.863Z,24.8
2019-01-14T19:17:48.805Z,24.8
2019-01-14T19:20:54.772Z,24.9
2019-01-14T19:24:00.830Z,24.9
2019-01-14T19:27:06.712Z,25
2019-01-14T19:30:20.159Z,25
2019-01-14T19:33:26.079Z,25
2019-01-14T19:36:32.140Z,25.1
2019-01-14T19:39:38.204Z,25.2
2019-01-14T19:42:44.079Z,25.3
2019-01-14T19:45:50.644Z,25.3
2019-01-14T19:48:56.598Z,25.4
2019-01-14T19:52:02.555Z,25.5
2019-01-14T19:55:08.433Z,25.5
2019-01-14T19:58:15.907Z,25.5
2019-01-14T20:01:21.782Z,25.5
2019-01-14T20:04:27.726Z,25.6
2019-01-14T20:07:33.606Z,25.6
2019-01-14T20:10:39.667Z,25.5
2019-01-14T20:13:45.917Z,25.6
2019-01-14T20:16:51.869Z,25.5
2019-01-14T20:19:57.931Z,25.6
2019-01-14T20:23:03.889Z,25.6
2019-01-14T20:26:09.764Z,25.7
2019-01-14T20:29:15.705Z,25.7
2019-01-14T20:32:21.664Z,25.7
2019-01-14T20:35:27.624Z,25.7
2019-01-14T20:38:33.529Z,25.6
2019-01-14T20:41:39.543Z,25.6
2019-01-14T20:44:45.459Z,25.7
2019-01-14T20:47:51.360Z,25.8
2019-01-14T20:50:57.253Z,25.8
2019-01-14T20:54:03.177Z,25.9
2019-01-14T20:57:09.240Z,25.9
2019-01-14T21:00:15.204Z,25.9
2019-01-14T21:03:21.163Z,25.9
2019-01-14T21:06:27.050Z,25.9
2019-01-14T21:09:32.982Z,26
2019-01-14T21:12:38.853Z,26
2019-01-14T21:15:44.902Z,26.1
2019-01-14T21:18:50.861Z,26.1
2019-01-14T21:21:56.742Z,26.1
2019-01-14T21:25:02.778Z,26.2
2019-01-14T21:28:08.658Z,26.2
2019-01-14T21:31:14.594Z,26.2
2019-01-14T21:34:20.653Z,26.2
2019-01-14T21:37:26.626Z,26.3
2019-01-14T21:40:32.687Z,26.3
2019-01-14T21:43:38.842Z,26.3
2019-01-14T21:46:44.904Z,26.3
2019-01-14T21:49:50.862Z,26.3
2019-01-14T21:52:56.739Z,26.3
2019-01-14T21:56:02.681Z,26.3
2019-01-14T21:59:08.800Z,26.3
2019-01-14T22:02:14.780Z,26.2
2019-01-14T22:05:20.764Z,26.3
2019-01-14T22:08:26.928Z,26.3
2019-01-14T22:11:39.342Z,26.3
2019-01-14T22:14:45.297Z,26.2
2019-01-14T22:17:51.174Z,26.2
2019-01-14T22:20:57.117Z,26.2
2019-01-14T22:24:03.175Z,26.2
2019-01-14T22:27:09.058Z,26.2
2019-01-14T22:30:15.092Z,26.2
2019-01-14T22:33:21.162Z,26.3
2019-01-14T22:36:27.220Z,26.3
2019-01-14T22:39:33.094Z,26.2
2019-01-14T22:42:39.049Z,26.2
2019-01-14T22:45:45.006Z,26.2
2019-01-14T22:48:50.955Z,26.2
2019-01-14T22:51:56.823Z,26.2
2019-01-14T22:55:02.772Z,26.2
2019-01-14T22:58:08.834Z,26.2
2019-01-14T23:01:14.721Z,26.2
2019-01-14T23:04:20.755Z,26.2
2019-01-14T23:07:26.638Z,26.1
2019-01-14T23:10:32.580Z,26.1
2019-01-14T23:13:38.538Z,26.1
2019-01-14T23:16:44.599Z,26.1
2019-01-14T23:19:50.560Z,26.1
2019-01-14T23:22:56.509Z,26.1
2019-01-14T23:26:02.477Z,26.1
2019-01-14T23:29:08.441Z,26.1
2019-01-14T23:32:14.502Z,26.1
2019-01-14T23:35:20.360Z,26
2019-01-14T23:38:26.422Z,25.9
2019-01-14T23:41:32.278Z,25.9
2019-01-14T23:44:38.235Z,25.8
2019-01-14T23:47:47.276Z,25.8
2019-01-14T23:50:53.329Z,25.8
2019-01-14T23:53:59.286Z,25.9
2019-01-14T23:57:05.352Z,25.9
